sensor_id;sensor_type;location;lat;lon;timestamp;temperature;humidity
5792;DHT22;2922;53.482;10.006;2023-04-06T00:01:40;3.00;99.90
5792;DHT22;2922;53.482;10.006;2023-04-06T00:04:06;3.10;99.90
5792;DHT22;2922;53.482;10.006;2023-04-06T00:06:32;3.00;99.90
5792;DHT22;2922;53.482;10.006;2023-04-06T00:08:58;3.00;99.90
5792;DHT22;2922;53.482;10.006;2023-04-06T00:11:24;2.90;99.90
5792;DHT22;2922;53.482;10.006;2023-04-06T00:13:50;2.80;99.90
5792;DHT22;2922;53.482;10.006;2023-04-06T00:16:16;2.80;99.90
5792;DHT22;2922;53.482;10.006;2023-04-06T00:18:41;2.80;99.90
5792;DHT22;2922;53.482;10.006;2023-04-06T00:21:07;2.70;99.90
5792;DHT22;2922;53.482;10.006;2023-04-06T00:23:33;2.70;99.90
5792;DHT22;2922;53.482;10.006;2023-04-06T00:25:58;2.70;99.90
5792;DHT22;2922;53.482;10.006;2023-04-06T00:28:24;2.60;99.90
5792;DHT22;2922;53.482;10.006;2023-04-06T00:30:52;2.60;99.90
5792;DHT22;2922;53.482;10.006;2023-04-06T00:33:18;2.50;99.90
5792;DHT22;2922;53.482;10.006;2023-04-06T00:35:44;2.50;99.90
5792;DHT22;2922;53.482;10.006;2023-04-06T00:38:11;2.40;99.90
5792;DHT22;2922;53.482;10.006;2023-04-06T00:40:36;2.40;99.90
5792;DHT22;2922;53.482;10.006;2023-04-06T00:43:02;2.40;99.90
5792;DHT22;2922;53.482;10.006;2023-04-06T00:45:28;2.30;99.90
5792;DHT22;2922;53.482;10.006;2023-04-06T00:47:54;2.30;99.90
5792;DHT22;2922;53.482;10.006;2023-04-06T00:50:19;2.30;99.90
5792;DHT22;2922;53.482;10.006;2023-04-06T00:52:45;2.30;99.90
5792;DHT22;2922;53.482;10.006;2023-04-06T00:55:11;2.30;99.90
5792;DHT22;2922;53.482;10.006;2023-04-06T00:57:36;2.30;99.90
5792;DHT22;2922;53.482;10.006;2023-04-06T01:00:03;2.30;99.90
5792;DHT22;2922;53.482;10.006;2023-04-06T01:02:29;2.20;99.90
5792;DHT22;2922;53.482;10.006;2023-04-06T01:04:55;2.20;99.90
5792;DHT22;2922;53.482;10.006;2023-04-06T01:07:20;2.20;99.90
5792;DHT22;2922;53.482;10.006;2023-04-06T01:09:46;2.10;99.90
5792;DHT22;2922;53.482;10.006;2023-04-06T01:12:11;2.10;99.90
5792;DHT22;2922;53.482;10.006;2023-04-06T01:14:37;2.10;99.90
5792;DHT22;2922;53.482;10.006;2023-04-06T01:17:03;2.10;99.90
5792;DHT22;2922;53.482;10.006;2023-04-06T01:19:28;2.00;99.90
5792;DHT22;2922;53.482;10.006;2023-04-06T01:21:54;2.00;99.90
5792;DHT22;2922;53.482;10.006;2023-04-06T01:24:20;2.00;99.90
5792;DHT22;2922;53.482;10.006;2023-04-06T01:26:46;2.00;99.90
5792;DHT22;2922;53.482;10.006;2023-04-06T01:29:12;1.90;99.90
5792;DHT22;2922;53.482;10.006;2023-04-06T01:31:38;1.90;99.90
5792;DHT22;2922;53.482;10.006;2023-04-06T01:34:04;1.80;99.90
5792;DHT22;2922;53.482;10.006;2023-04-06T01:36:30;1.80;99.90
5792;DHT22;2922;53.482;10.006;2023-04-06T01:38:56;1.70;99.90
5792;DHT22;2922;53.482;10.006;2023-04-06T01:41:22;1.70;99.90
5792;DHT22;2922;53.482;10.006;2023-04-06T01:43:48;1.70;99.90
5792;DHT22;2922;53.482;10.006;2023-04-06T01:46:14;1.70;99.90
5792;DHT22;2922;53.482;10.006;2023-04-06T01:48:40;1.70;99.90
5792;DHT22;2922;53.482;10.006;2023-04-06T01:51:06;1.70;99.90
5792;DHT22;2922;53.482;10.006;2023-04-06T01:53:32;1.60;99.90
5792;DHT22;2922;53.482;10.006;2023-04-06T01:55:57;1.60;99.90
5792;DHT22;2922;53.482;10.006;2023-04-06T01:58:23;1.60;99.90
5792;DHT22;2922;53.482;10.006;2023-04-06T02:00:48;1.60;99.90
5792;DHT22;2922;53.482;10.006;2023-04-06T02:03:14;1.60;99.90
5792;DHT22;2922;53.482;10.006;2023-04-06T02:05:40;1.50;99.90
5792;DHT22;2922;53.482;10.006;2023-04-06T02:08:06;1.50;99.90
5792;DHT22;2922;53.482;10.006;2023-04-06T02:10:35;1.50;99.90
5792;DHT22;2922;53.482;10.006;2023-04-06T02:13:00;1.50;99.90
5792;DHT22;2922;53.482;10.006;2023-04-06T02:15:27;1.50;99.90
5792;DHT22;2922;53.482;10.006;2023-04-06T02:17:53;1.40;99.90
5792;DHT22;2922;53.482;10.006;2023-04-06T02:20:19;1.40;99.90
5792;DHT22;2922;53.482;10.006;2023-04-06T02:22:45;1.40;99.90
5792;DHT22;2922;53.482;10.006;2023-04-06T02:25:10;1.40;99.90
5792;DHT22;2922;53.482;10.006;2023-04-06T02:27:36;1.40;99.90
5792;DHT22;2922;53.482;10.006;2023-04-06T02:30:03;1.30;99.90
5792;DHT22;2922;53.482;10.006;2023-04-06T02:32:29;1.30;99.90
5792;DHT22;2922;53.482;10.006;2023-04-06T02:34:54;1.30;99.90
5792;DHT22;2922;53.482;10.006;2023-04-06T02:37:20;1.20;99.90
5792;DHT22;2922;53.482;10.006;2023-04-06T02:39:47;1.20;99.90
5792;DHT22;2922;53.482;10.006;2023-04-06T02:42:12;1.10;99.90
5792;DHT22;2922;53.482;10.006;2023-04-06T02:44:40;1.10;99.90
5792;DHT22;2922;53.482;10.006;2023-04-06T02:47:06;1.10;99.90
5792;DHT22;2922;53.482;10.006;2023-04-06T02:49:32;1.10;99.90
5792;DHT22;2922;53.482;10.006;2023-04-06T02:51:57;1.00;99.90
5792;DHT22;2922;53.482;10.006;2023-04-06T02:54:23;1.10;99.90
5792;DHT22;2922;53.482;10.006;2023-04-06T02:56:48;1.00;99.90
5792;DHT22;2922;53.482;10.006;2023-04-06T02:59:14;1.00;99.90
5792;DHT22;2922;53.482;10.006;2023-04-06T03:01:40;1.00;99.90
5792;DHT22;2922;53.482;10.006;2023-04-06T03:04:05;1.00;99.90
5792;DHT22;2922;53.482;10.006;2023-04-06T03:06:31;1.00;99.90
5792;DHT22;2922;53.482;10.006;2023-04-06T03:08:56;1.00;99.90
5792;DHT22;2922;53.482;10.006;2023-04-06T03:11:22;1.00;99.90
5792;DHT22;2922;53.482;10.006;2023-04-06T03:13:48;1.00;99.90
5792;DHT22;2922;53.482;10.006;2023-04-06T03:16:13;1.00;99.90
5792;DHT22;2922;53.482;10.006;2023-04-06T03:18:39;1.00;99.90
5792;DHT22;2922;53.482;10.006;2023-04-06T03:21:04;0.90;99.90
5792;DHT22;2922;53.482;10.006;2023-04-06T03:23:30;0.90;99.90
5792;DHT22;2922;53.482;10.006;2023-04-06T03:25:56;0.90;99.90
5792;DHT22;2922;53.482;10.006;2023-04-06T03:28:21;0.90;99.90
5792;DHT22;2922;53.482;10.006;2023-04-06T03:30:47;0.80;99.90
5792;DHT22;2922;53.482;10.006;2023-04-06T03:33:12;0.80;99.90
5792;DHT22;2922;53.482;10.006;2023-04-06T03:35:38;0.80;99.90
5792;DHT22;2922;53.482;10.006;2023-04-06T03:38:04;0.80;99.90
5792;DHT22;2922;53.482;10.006;2023-04-06T03:40:33;0.80;99.90
5792;DHT22;2922;53.482;10.006;2023-04-06T03:42:58;0.80;99.90
5792;DHT22;2922;53.482;10.006;2023-04-06T03:45:24;0.80;99.90
5792;DHT22;2922;53.482;10.006;2023-04-06T03:47:49;0.70;99.90
5792;DHT22;2922;53.482;10.006;2023-04-06T03:50:15;0.70;99.90
5792;DHT22;2922;53.482;10.006;2023-04-06T03:52:41;0.70;99.90
5792;DHT22;2922;53.482;10.006;2023-04-06T03:55:07;0.70;99.90
5792;DHT22;2922;53.482;10.006;2023-04-06T03:57:33;0.70;99.90
5792;DHT22;2922;53.482;10.006;2023-04-06T03:59:58;0.70;99.90
5792;DHT22;2922;53.482;10.006;2023-04-06T04:02:25;0.60;99.90
5792;DHT22;2922;53.482;10.006;2023-04-06T04:04:50;0.60;99.90
5792;DHT22;2922;53.482;10.006;2023-04-06T04:07:16;0.60;99.90
5792;DHT22;2922;53.482;10.006;2023-04-06T04:09:41;0.50;99.90
5792;DHT22;2922;53.482;10.006;2023-04-06T04:12:07;0.50;99.90
5792;DHT22;2922;53.482;10.006;2023-04-06T04:14:32;0.50;99.90
5792;DHT22;2922;53.482;10.006;2023-04-06T04:16:58;0.50;99.90
5792;DHT22;2922;53.482;10.006;2023-04-06T04:19:24;0.50;99.90
5792;DHT22;2922;53.482;10.006;2023-04-06T04:21:49;0.50;99.90
5792;DHT22;2922;53.482;10.006;2023-04-06T04:24:15;0.50;99.90
5792;DHT22;2922;53.482;10.006;2023-04-06T04:26:40;0.50;99.90
5792;DHT22;2922;53.482;10.006;2023-04-06T04:29:06;0.40;99.90
5792;DHT22;2922;53.482;10.006;2023-04-06T04:31:32;0.40;99.90
5792;DHT22;2922;53.482;10.006;2023-04-06T04:33:59;0.40;99.90
5792;DHT22;2922;53.482;10.006;2023-04-06T04:36:24;0.40;99.90
5792;DHT22;2922;53.482;10.006;2023-04-06T04:38:51;0.40;99.90
5792;DHT22;2922;53.482;10.006;2023-04-06T04:41:17;0.40;99.90
5792;DHT22;2922;53.482;10.006;2023-04-06T04:43:42;0.40;99.90
5792;DHT22;2922;53.482;10.006;2023-04-06T04:46:08;0.40;99.90
5792;DHT22;2922;53.482;10.006;2023-04-06T04:48:33;0.40;99.90
5792;DHT22;2922;53.482;10.006;2023-04-06T04:51:00;0.40;99.90
5792;DHT22;2922;53.482;10.006;2023-04-06T04:53:26;0.40;99.90
5792;DHT22;2922;53.482;10.006;2023-04-06T04:55:51;0.40;99.90
5792;DHT22;2922;53.482;10.006;2023-04-06T04:58:17;0.40;99.90
5792;DHT22;2922;53.482;10.006;2023-04-06T05:00:45;0.40;99.90
5792;DHT22;2922;53.482;10.006;2023-04-06T05:03:20;0.30;99.90
5792;DHT22;2922;53.482;10.006;2023-04-06T05:05:46;0.40;99.90
5792;DHT22;2922;53.482;10.006;2023-04-06T05:08:12;0.30;99.90
5792;DHT22;2922;53.482;10.006;2023-04-06T05:10:38;0.40;99.90
5792;DHT22;2922;53.482;10.006;2023-04-06T05:13:03;0.40;99.90
5792;DHT22;2922;53.482;10.006;2023-04-06T05:15:29;0.40;99.90
5792;DHT22;2922;53.482;10.006;2023-04-06T05:17:55;0.40;99.90
5792;DHT22;2922;53.482;10.006;2023-04-06T05:20:21;0.50;99.90
5792;DHT22;2922;53.482;10.006;2023-04-06T05:22:46;0.40;99.90
5792;DHT22;2922;53.482;10.006;2023-04-06T05:25:13;0.40;99.90
5792;DHT22;2922;53.482;10.006;2023-04-06T05:27:39;0.50;99.90
5792;DHT22;2922;53.482;10.006;2023-04-06T05:30:06;0.50;99.90
5792;DHT22;2922;53.482;10.006;2023-04-06T05:32:32;0.50;99.90
5792;DHT22;2922;53.482;10.006;2023-04-06T05:34:58;0.50;99.90
5792;DHT22;2922;53.482;10.006;2023-04-06T05:37:23;0.60;99.90
5792;DHT22;2922;53.482;10.006;2023-04-06T05:39:49;0.60;99.90
5792;DHT22;2922;53.482;10.006;2023-04-06T05:42:15;0.60;99.90
5792;DHT22;2922;53.482;10.006;2023-04-06T05:44:41;0.60;99.90
5792;DHT22;2922;53.482;10.006;2023-04-06T05:47:06;0.60;99.90
5792;DHT22;2922;53.482;10.006;2023-04-06T05:49:32;0.70;99.90
5792;DHT22;2922;53.482;10.006;2023-04-06T05:51:58;0.70;99.90
5792;DHT22;2922;53.482;10.006;2023-04-06T05:54:23;0.80;99.90
5792;DHT22;2922;53.482;10.006;2023-04-06T05:56:49;0.80;99.90
5792;DHT22;2922;53.482;10.006;2023-04-06T05:59:14;0.90;99.90
5792;DHT22;2922;53.482;10.006;2023-04-06T06:01:40;0.90;99.90
5792;DHT22;2922;53.482;10.006;2023-04-06T06:04:06;1.00;99.90
5792;DHT22;2922;53.482;10.006;2023-04-06T06:06:32;1.00;99.90
5792;DHT22;2922;53.482;10.006;2023-04-06T06:08:57;1.10;99.90
5792;DHT22;2922;53.482;10.006;2023-04-06T06:11:26;1.20;99.90
5792;DHT22;2922;53.482;10.006;2023-04-06T06:13:52;1.30;99.90
5792;DHT22;2922;53.482;10.006;2023-04-06T06:16:18;1.30;99.90
5792;DHT22;2922;53.482;10.006;2023-04-06T06:18:44;1.40;99.90
5792;DHT22;2922;53.482;10.006;2023-04-06T06:21:10;1.50;99.90
5792;DHT22;2922;53.482;10.006;2023-04-06T06:23:38;1.60;99.90
5792;DHT22;2922;53.482;10.006;2023-04-06T06:26:03;1.60;99.90
5792;DHT22;2922;53.482;10.006;2023-04-06T06:28:30;1.70;99.90
5792;DHT22;2922;53.482;10.006;2023-04-06T06:30:55;1.80;99.90
5792;DHT22;2922;53.482;10.006;2023-04-06T06:33:21;1.90;99.90
5792;DHT22;2922;53.482;10.006;2023-04-06T06:35:46;1.90;99.90
5792;DHT22;2922;53.482;10.006;2023-04-06T06:38:12;2.00;99.90
5792;DHT22;2922;53.482;10.006;2023-04-06T06:40:39;2.20;99.90
5792;DHT22;2922;53.482;10.006;2023-04-06T06:43:05;2.30;99.90
5792;DHT22;2922;53.482;10.006;2023-04-06T06:45:31;2.40;99.90
5792;DHT22;2922;53.482;10.006;2023-04-06T06:47:56;2.50;99.90
5792;DHT22;2922;53.482;10.006;2023-04-06T06:50:22;2.60;99.90
5792;DHT22;2922;53.482;10.006;2023-04-06T06:52:47;2.70;99.90
5792;DHT22;2922;53.482;10.006;2023-04-06T06:55:13;2.80;99.90
5792;DHT22;2922;53.482;10.006;2023-04-06T06:57:39;3.00;99.90
5792;DHT22;2922;53.482;10.006;2023-04-06T07:00:06;3.10;99.90
5792;DHT22;2922;53.482;10.006;2023-04-06T07:02:34;3.30;99.90
5792;DHT22;2922;53.482;10.006;2023-04-06T07:05:01;3.50;99.90
5792;DHT22;2922;53.482;10.006;2023-04-06T07:07:27;3.60;99.90
5792;DHT22;2922;53.482;10.006;2023-04-06T07:09:52;3.80;99.90
5792;DHT22;2922;53.482;10.006;2023-04-06T07:12:18;4.00;99.90
5792;DHT22;2922;53.482;10.006;2023-04-06T07:14:44;4.10;99.90
5792;DHT22;2922;53.482;10.006;2023-04-06T07:17:09;4.30;99.90
5792;DHT22;2922;53.482;10.006;2023-04-06T07:19:35;4.50;99.90
5792;DHT22;2922;53.482;10.006;2023-04-06T07:22:01;4.70;99.90
5792;DHT22;2922;53.482;10.006;2023-04-06T07:24:27;4.90;99.90
5792;DHT22;2922;53.482;10.006;2023-04-06T07:26:53;5.10;99.90
5792;DHT22;2922;53.482;10.006;2023-04-06T07:29:18;5.20;99.90
5792;DHT22;2922;53.482;10.006;2023-04-06T07:31:44;5.40;99.90
5792;DHT22;2922;53.482;10.006;2023-04-06T07:34:10;5.50;99.90
5792;DHT22;2922;53.482;10.006;2023-04-06T07:36:36;5.70;99.90
5792;DHT22;2922;53.482;10.006;2023-04-06T07:39:01;5.90;99.90
5792;DHT22;2922;53.482;10.006;2023-04-06T07:41:27;6.00;99.90
5792;DHT22;2922;53.482;10.006;2023-04-06T07:43:53;6.20;99.90
5792;DHT22;2922;53.482;10.006;2023-04-06T07:46:18;6.40;99.90
5792;DHT22;2922;53.482;10.006;2023-04-06T07:48:45;6.60;99.90
5792;DHT22;2922;53.482;10.006;2023-04-06T07:51:10;6.80;99.90
5792;DHT22;2922;53.482;10.006;2023-04-06T07:53:39;6.80;99.90
5792;DHT22;2922;53.482;10.006;2023-04-06T07:56:05;7.00;99.90
5792;DHT22;2922;53.482;10.006;2023-04-06T07:58:31;7.20;99.90
5792;DHT22;2922;53.482;10.006;2023-04-06T08:00:56;7.30;99.90
5792;DHT22;2922;53.482;10.006;2023-04-06T08:03:23;7.40;99.90
5792;DHT22;2922;53.482;10.006;2023-04-06T08:05:51;7.50;99.90
5792;DHT22;2922;53.482;10.006;2023-04-06T08:08:18;7.70;99.90
5792;DHT22;2922;53.482;10.006;2023-04-06T08:10:44;7.80;99.90
5792;DHT22;2922;53.482;10.006;2023-04-06T08:13:09;8.00;99.90
5792;DHT22;2922;53.482;10.006;2023-04-06T08:15:35;8.10;99.90
5792;DHT22;2922;53.482;10.006;2023-04-06T08:18:01;8.30;99.90
5792;DHT22;2922;53.482;10.006;2023-04-06T08:20:26;8.50;99.90
5792;DHT22;2922;53.482;10.006;2023-04-06T08:22:52;8.50;99.90
5792;DHT22;2922;53.482;10.006;2023-04-06T08:25:17;8.60;99.90
5792;DHT22;2922;53.482;10.006;2023-04-06T08:27:43;8.80;99.90
5792;DHT22;2922;53.482;10.006;2023-04-06T08:30:09;9.00;99.90
5792;DHT22;2922;53.482;10.006;2023-04-06T08:32:35;9.20;99.90
5792;DHT22;2922;53.482;10.006;2023-04-06T08:35:01;9.40;99.90
5792;DHT22;2922;53.482;10.006;2023-04-06T08:37:26;9.50;99.90
5792;DHT22;2922;53.482;10.006;2023-04-06T08:39:52;9.60;99.90
5792;DHT22;2922;53.482;10.006;2023-04-06T08:42:21;9.80;99.90
5792;DHT22;2922;53.482;10.006;2023-04-06T08:44:50;10.00;99.90
5792;DHT22;2922;53.482;10.006;2023-04-06T08:47:18;10.10;99.50
5792;DHT22;2922;53.482;10.006;2023-04-06T08:49:44;10.20;97.10
5792;DHT22;2922;53.482;10.006;2023-04-06T08:52:11;10.30;95.30
5792;DHT22;2922;53.482;10.006;2023-04-06T08:54:38;10.30;93.40
5792;DHT22;2922;53.482;10.006;2023-04-06T08:57:04;10.60;94.90
5792;DHT22;2922;53.482;10.006;2023-04-06T08:59:31;10.80;93.30
5792;DHT22;2922;53.482;10.006;2023-04-06T09:01:57;10.90;92.80
5792;DHT22;2922;53.482;10.006;2023-04-06T09:04:24;11.00;89.80
5792;DHT22;2922;53.482;10.006;2023-04-06T09:06:51;11.10;89.60
5792;DHT22;2922;53.482;10.006;2023-04-06T09:09:17;11.30;85.20
5792;DHT22;2922;53.482;10.006;2023-04-06T09:11:48;11.50;85.10
5792;DHT22;2922;53.482;10.006;2023-04-06T09:14:14;11.60;85.40
5792;DHT22;2922;53.482;10.006;2023-04-06T09:16:45;11.60;79.70
5792;DHT22;2922;53.482;10.006;2023-04-06T09:19:11;11.90;82.00
5792;DHT22;2922;53.482;10.006;2023-04-06T09:21:37;12.00;76.60
5792;DHT22;2922;53.482;10.006;2023-04-06T09:24:06;12.00;76.90
5792;DHT22;2922;53.482;10.006;2023-04-06T09:26:43;12.20;70.40
5792;DHT22;2922;53.482;10.006;2023-04-06T09:29:09;12.20;68.70
5792;DHT22;2922;53.482;10.006;2023-04-06T09:31:35;12.20;62.80
5792;DHT22;2922;53.482;10.006;2023-04-06T09:34:01;12.20;64.10
5792;DHT22;2922;53.482;10.006;2023-04-06T09:36:34;12.30;67.20
5792;DHT22;2922;53.482;10.006;2023-04-06T09:39:02;12.50;62.70
5792;DHT22;2922;53.482;10.006;2023-04-06T09:41:34;12.70;65.90
5792;DHT22;2922;53.482;10.006;2023-04-06T09:44:04;12.90;62.00
5792;DHT22;2922;53.482;10.006;2023-04-06T09:46:44;13.00;61.30
5792;DHT22;2922;53.482;10.006;2023-04-06T09:49:11;12.90;58.40
5792;DHT22;2922;53.482;10.006;2023-04-06T09:51:41;12.90;58.40
5792;DHT22;2922;53.482;10.006;2023-04-06T09:54:09;13.10;58.70
5792;DHT22;2922;53.482;10.006;2023-04-06T09:56:43;13.20;57.90
5792;DHT22;2922;53.482;10.006;2023-04-06T09:59:14;13.30;58.20
5792;DHT22;2922;53.482;10.006;2023-04-06T10:01:45;13.40;56.70
5792;DHT22;2922;53.482;10.006;2023-04-06T10:04:27;13.40;54.20
5792;DHT22;2922;53.482;10.006;2023-04-06T10:06:55;13.50;53.50
5792;DHT22;2922;53.482;10.006;2023-04-06T10:09:25;13.70;56.40
5792;DHT22;2922;53.482;10.006;2023-04-06T10:11:52;13.70;53.70
5792;DHT22;2922;53.482;10.006;2023-04-06T10:14:18;13.70;53.20
5792;DHT22;2922;53.482;10.006;2023-04-06T10:16:43;13.90;55.20
5792;DHT22;2922;53.482;10.006;2023-04-06T10:19:16;14.10;51.30
5792;DHT22;2922;53.482;10.006;2023-04-06T10:21:44;14.20;52.20
5792;DHT22;2922;53.482;10.006;2023-04-06T10:24:13;14.40;51.00
5792;DHT22;2922;53.482;10.006;2023-04-06T10:26:39;14.30;53.30
5792;DHT22;2922;53.482;10.006;2023-04-06T10:29:05;14.40;50.80
5792;DHT22;2922;53.482;10.006;2023-04-06T10:31:31;14.50;51.60
5792;DHT22;2922;53.482;10.006;2023-04-06T10:33:59;14.80;55.10
5792;DHT22;2922;53.482;10.006;2023-04-06T10:36:27;14.90;50.10
5792;DHT22;2922;53.482;10.006;2023-04-06T10:38:58;15.00;50.50
5792;DHT22;2922;53.482;10.006;2023-04-06T10:41:24;15.10;49.70
5792;DHT22;2922;53.482;10.006;2023-04-06T10:43:57;15.10;49.60
5792;DHT22;2922;53.482;10.006;2023-04-06T10:46:28;15.20;47.90
5792;DHT22;2922;53.482;10.006;2023-04-06T10:48:54;15.20;49.50
5792;DHT22;2922;53.482;10.006;2023-04-06T10:51:25;15.30;50.00
5792;DHT22;2922;53.482;10.006;2023-04-06T10:53:53;15.50;49.20
5792;DHT22;2922;53.482;10.006;2023-04-06T10:56:22;15.60;47.20
5792;DHT22;2922;53.482;10.006;2023-04-06T10:58:49;15.60;48.30
5792;DHT22;2922;53.482;10.006;2023-04-06T11:01:16;15.70;49.20
5792;DHT22;2922;53.482;10.006;2023-04-06T11:03:51;15.70;49.70
5792;DHT22;2922;53.482;10.006;2023-04-06T11:06:25;15.70;48.20
5792;DHT22;2922;53.482;10.006;2023-04-06T11:08:52;15.70;48.40
5792;DHT22;2922;53.482;10.006;2023-04-06T11:11:19;15.90;48.00
5792;DHT22;2922;53.482;10.006;2023-04-06T11:13:55;15.90;47.50
5792;DHT22;2922;53.482;10.006;2023-04-06T11:21:47;16.40;48.50
5792;DHT22;2922;53.482;10.006;2023-04-06T11:26:43;16.40;46.00
5792;DHT22;2922;53.482;10.006;2023-04-06T11:29:10;16.40;46.50
5792;DHT22;2922;53.482;10.006;2023-04-06T11:31:40;16.50;47.50
5792;DHT22;2922;53.482;10.006;2023-04-06T11:34:10;16.80;49.30
5792;DHT22;2922;53.482;10.006;2023-04-06T11:36:39;16.90;45.80
5792;DHT22;2922;53.482;10.006;2023-04-06T11:39:05;16.80;44.20
5792;DHT22;2922;53.482;10.006;2023-04-06T11:41:32;16.80;43.90
5792;DHT22;2922;53.482;10.006;2023-04-06T11:44:01;17.00;45.30
5792;DHT22;2922;53.482;10.006;2023-04-06T11:46:27;17.20;43.40
5792;DHT22;2922;53.482;10.006;2023-04-06T11:49:01;17.40;44.10
5792;DHT22;2922;53.482;10.006;2023-04-06T11:51:27;17.30;43.70
5792;DHT22;2922;53.482;10.006;2023-04-06T11:53:54;17.40;44.20
5792;DHT22;2922;53.482;10.006;2023-04-06T11:56:24;17.40;43.60
5792;DHT22;2922;53.482;10.006;2023-04-06T11:58:50;17.40;44.50
5792;DHT22;2922;53.482;10.006;2023-04-06T12:01:16;17.40;41.50
5792;DHT22;2922;53.482;10.006;2023-04-06T12:03:41;17.60;42.40
5792;DHT22;2922;53.482;10.006;2023-04-06T12:06:07;17.70;43.30
5792;DHT22;2922;53.482;10.006;2023-04-06T12:08:33;17.60;42.60
5792;DHT22;2922;53.482;10.006;2023-04-06T12:10:58;17.60;42.10
5792;DHT22;2922;53.482;10.006;2023-04-06T12:13:24;17.70;43.80
5792;DHT22;2922;53.482;10.006;2023-04-06T12:15:50;17.70;44.10
5792;DHT22;2922;53.482;10.006;2023-04-06T12:18:16;17.80;41.80
5792;DHT22;2922;53.482;10.006;2023-04-06T12:20:41;17.90;44.90
5792;DHT22;2922;53.482;10.006;2023-04-06T12:23:07;17.90;42.10
5792;DHT22;2922;53.482;10.006;2023-04-06T12:25:33;18.00;40.40
5792;DHT22;2922;53.482;10.006;2023-04-06T12:27:58;17.90;40.90
5792;DHT22;2922;53.482;10.006;2023-04-06T12:30:24;17.90;41.10
5792;DHT22;2922;53.482;10.006;2023-04-06T12:32:50;17.90;41.10
5792;DHT22;2922;53.482;10.006;2023-04-06T12:35:16;18.00;42.50
5792;DHT22;2922;53.482;10.006;2023-04-06T12:37:42;18.10;41.70
5792;DHT22;2922;53.482;10.006;2023-04-06T12:40:08;17.90;40.60
5792;DHT22;2922;53.482;10.006;2023-04-06T12:42:36;18.10;41.70
5792;DHT22;2922;53.482;10.006;2023-04-06T12:45:01;17.90;42.10
5792;DHT22;2922;53.482;10.006;2023-04-06T12:47:27;17.80;43.10
5792;DHT22;2922;53.482;10.006;2023-04-06T12:49:53;18.00;43.30
5792;DHT22;2922;53.482;10.006;2023-04-06T12:52:20;18.10;41.60
5792;DHT22;2922;53.482;10.006;2023-04-06T12:54:46;18.20;39.60
5792;DHT22;2922;53.482;10.006;2023-04-06T12:57:12;18.30;39.60
5792;DHT22;2922;53.482;10.006;2023-04-06T12:59:38;18.30;40.90
5792;DHT22;2922;53.482;10.006;2023-04-06T13:02:04;18.40;40.00
5792;DHT22;2922;53.482;10.006;2023-04-06T13:04:30;18.40;40.20
5792;DHT22;2922;53.482;10.006;2023-04-06T13:06:55;18.50;41.00
5792;DHT22;2922;53.482;10.006;2023-04-06T13:09:21;18.40;39.60
5792;DHT22;2922;53.482;10.006;2023-04-06T13:11:47;18.40;41.50
5792;DHT22;2922;53.482;10.006;2023-04-06T13:14:13;18.30;40.30
5792;DHT22;2922;53.482;10.006;2023-04-06T13:16:38;18.50;41.30
5792;DHT22;2922;53.482;10.006;2023-04-06T13:19:04;18.60;43.70
5792;DHT22;2922;53.482;10.006;2023-04-06T13:21:30;18.60;41.00
5792;DHT22;2922;53.482;10.006;2023-04-06T13:23:56;18.70;40.80
5792;DHT22;2922;53.482;10.006;2023-04-06T13:26:21;18.60;39.60
5792;DHT22;2922;53.482;10.006;2023-04-06T13:28:47;18.70;39.10
5792;DHT22;2922;53.482;10.006;2023-04-06T13:31:13;18.40;38.10
5792;DHT22;2922;53.482;10.006;2023-04-06T13:33:38;18.40;39.60
5792;DHT22;2922;53.482;10.006;2023-04-06T13:36:06;18.40;40.50
5792;DHT22;2922;53.482;10.006;2023-04-06T13:38:32;18.40;40.70
5792;DHT22;2922;53.482;10.006;2023-04-06T13:40:59;18.50;39.30
5792;DHT22;2922;53.482;10.006;2023-04-06T13:43:25;18.50;40.30
5792;DHT22;2922;53.482;10.006;2023-04-06T13:45:57;18.20;38.40
5792;DHT22;2922;53.482;10.006;2023-04-06T13:48:25;18.00;38.60
5792;DHT22;2922;53.482;10.006;2023-04-06T13:50:51;17.90;37.80
5792;DHT22;2922;53.482;10.006;2023-04-06T13:53:17;18.10;38.90
5792;DHT22;2922;53.482;10.006;2023-04-06T13:55:43;18.10;37.30
5792;DHT22;2922;53.482;10.006;2023-04-06T13:58:09;18.10;40.40
5792;DHT22;2922;53.482;10.006;2023-04-06T14:00:35;18.10;38.10
5792;DHT22;2922;53.482;10.006;2023-04-06T14:03:01;18.10;38.70
5792;DHT22;2922;53.482;10.006;2023-04-06T14:05:30;18.00;37.40
5792;DHT22;2922;53.482;10.006;2023-04-06T14:07:55;18.10;37.80
5792;DHT22;2922;53.482;10.006;2023-04-06T14:10:21;18.10;36.20
5792;DHT22;2922;53.482;10.006;2023-04-06T14:12:49;18.00;37.60
5792;DHT22;2922;53.482;10.006;2023-04-06T14:15:15;17.90;37.70
5792;DHT22;2922;53.482;10.006;2023-04-06T14:17:40;17.90;38.20
5792;DHT22;2922;53.482;10.006;2023-04-06T14:20:06;17.80;38.50
5792;DHT22;2922;53.482;10.006;2023-04-06T14:22:32;17.70;39.00
5792;DHT22;2922;53.482;10.006;2023-04-06T14:24:58;17.70;40.70
5792;DHT22;2922;53.482;10.006;2023-04-06T14:27:24;17.70;39.90
5792;DHT22;2922;53.482;10.006;2023-04-06T14:29:50;17.70;42.20
5792;DHT22;2922;53.482;10.006;2023-04-06T14:32:16;17.30;37.60
5792;DHT22;2922;53.482;10.006;2023-04-06T14:34:42;17.30;39.30
5792;DHT22;2922;53.482;10.006;2023-04-06T14:37:07;17.20;38.40
5792;DHT22;2922;53.482;10.006;2023-04-06T14:39:33;17.20;37.50
5792;DHT22;2922;53.482;10.006;2023-04-06T14:41:59;17.20;39.70
5792;DHT22;2922;53.482;10.006;2023-04-06T14:44:24;17.10;39.30
5792;DHT22;2922;53.482;10.006;2023-04-06T14:46:50;17.00;41.10
5792;DHT22;2922;53.482;10.006;2023-04-06T14:49:16;17.00;40.40
5792;DHT22;2922;53.482;10.006;2023-04-06T14:51:41;16.80;39.50
5792;DHT22;2922;53.482;10.006;2023-04-06T14:54:07;16.70;37.70
5792;DHT22;2922;53.482;10.006;2023-04-06T14:56:33;16.70;41.20
5792;DHT22;2922;53.482;10.006;2023-04-06T14:58:59;16.70;41.40
5792;DHT22;2922;53.482;10.006;2023-04-06T15:01:26;16.70;39.80
5792;DHT22;2922;53.482;10.006;2023-04-06T15:03:52;16.70;42.10
5792;DHT22;2922;53.482;10.006;2023-04-06T15:06:18;16.60;40.90
5792;DHT22;2922;53.482;10.006;2023-04-06T15:08:47;16.60;40.50
5792;DHT22;2922;53.482;10.006;2023-04-06T15:11:13;16.60;39.20
5792;DHT22;2922;53.482;10.006;2023-04-06T15:13:39;16.60;38.70
5792;DHT22;2922;53.482;10.006;2023-04-06T15:16:06;16.60;39.40
5792;DHT22;2922;53.482;10.006;2023-04-06T15:18:34;16.60;38.10
5792;DHT22;2922;53.482;10.006;2023-04-06T15:21:00;16.50;40.30
5792;DHT22;2922;53.482;10.006;2023-04-06T15:23:25;16.50;40.00
5792;DHT22;2922;53.482;10.006;2023-04-06T15:25:55;16.40;40.90
5792;DHT22;2922;53.482;10.006;2023-04-06T15:28:20;16.30;41.80
5792;DHT22;2922;53.482;10.006;2023-04-06T15:30:46;16.20;42.30
5792;DHT22;2922;53.482;10.006;2023-04-06T15:33:12;16.10;41.90
5792;DHT22;2922;53.482;10.006;2023-04-06T15:35:37;16.00;41.40
5792;DHT22;2922;53.482;10.006;2023-04-06T15:38:05;15.80;41.80
5792;DHT22;2922;53.482;10.006;2023-04-06T15:40:32;15.80;42.40
5792;DHT22;2922;53.482;10.006;2023-04-06T15:42:57;15.80;42.60
5792;DHT22;2922;53.482;10.006;2023-04-06T15:45:23;15.70;41.70
5792;DHT22;2922;53.482;10.006;2023-04-06T15:47:48;15.70;41.40
5792;DHT22;2922;53.482;10.006;2023-04-06T15:50:14;15.60;42.60
5792;DHT22;2922;53.482;10.006;2023-04-06T15:52:40;15.60;42.00
5792;DHT22;2922;53.482;10.006;2023-04-06T15:55:07;15.60;41.90
5792;DHT22;2922;53.482;10.006;2023-04-06T15:57:33;15.50;41.30